sensor_id;sensor_type;location;lat;lon;timestamp;pressure;altitude;pressure_sealevel;temperature;humidity
37972;BME280;23794;48.234;8.344;2023-07-30T00:02:16;94037.25;;;15.59;85.96
37972;BME280;23794;48.234;8.344;2023-07-30T00:04:44;94047.19;;;15.57;86.47
37972;BME280;23794;48.234;8.344;2023-07-30T00:07:11;94039.22;;;15.59;86.70
37972;BME280;23794;48.234;8.344;2023-07-30T00:09:38;94036.34;;;15.62;86.58
37972;BME280;23794;48.234;8.344;2023-07-30T00:12:07;94044.13;;;15.68;86.29
37972;BME280;23794;48.234;8.344;2023-07-30T00:14:34;94050.84;;;15.67;86.46
37972;BME280;23794;48.234;8.344;2023-07-30T00:17:01;94035.72;;;15.71;86.55
37972;BME280;23794;48.234;8.344;2023-07-30T00:19:28;94031.41;;;15.70;86.32
37972;BME280;23794;48.234;8.344;2023-07-30T00:21:55;94035.19;;;15.76;86.16
37972;BME280;23794;48.234;8.344;2023-07-30T00:24:21;94037.19;;;15.76;86.38
37972;BME280;23794;48.234;8.344;2023-07-30T00:26:48;94030.00;;;15.78;86.79
37972;BME280;23794;48.234;8.344;2023-07-30T00:29:14;94040.94;;;15.82;86.44
37972;BME280;23794;48.234;8.344;2023-07-30T00:31:41;94039.94;;;15.89;86.35
37972;BME280;23794;48.234;8.344;2023-07-30T00:34:08;94050.31;;;15.85;86.33
37972;BME280;23794;48.234;8.344;2023-07-30T00:36:35;94044.03;;;15.84;86.18
37972;BME280;23794;48.234;8.344;2023-07-30T00:39:01;94044.47;;;15.83;86.15
37972;BME280;23794;48.234;8.344;2023-07-30T00:41:29;94048.78;;;15.84;86.06
37972;BME280;23794;48.234;8.344;2023-07-30T00:43:56;94049.31;;;15.78;86.20
37972;BME280;23794;48.234;8.344;2023-07-30T00:46:23;94050.19;;;15.75;86.59
37972;BME280;23794;48.234;8.344;2023-07-30T00:48:49;94061.69;;;15.74;86.40
37972;BME280;23794;48.234;8.344;2023-07-30T00:51:17;94061.00;;;15.70;86.47
37972;BME280;23794;48.234;8.344;2023-07-30T00:53:44;94053.47;;;15.57;87.12
37972;BME280;23794;48.234;8.344;2023-07-30T00:56:11;94056.91;;;15.61;86.60
37972;BME280;23794;48.234;8.344;2023-07-30T00:58:39;94061.41;;;15.55;86.76
37972;BME280;23794;48.234;8.344;2023-07-30T01:01:06;94057.19;;;15.51;86.79
37972;BME280;23794;48.234;8.344;2023-07-30T01:03:33;94052.09;;;15.49;86.47
37972;BME280;23794;48.234;8.344;2023-07-30T01:05:59;94061.84;;;15.54;86.21
37972;BME280;23794;48.234;8.344;2023-07-30T01:08:26;94067.38;;;15.54;86.34
37972;BME280;23794;48.234;8.344;2023-07-30T01:10:54;94066.59;;;15.53;86.21
37972;BME280;23794;48.234;8.344;2023-07-30T01:13:21;94053.00;;;15.46;86.45
37972;BME280;23794;48.234;8.344;2023-07-30T01:15:49;94068.41;;;15.43;86.67
37972;BME280;23794;48.234;8.344;2023-07-30T01:18:15;94073.72;;;15.38;87.05
37972;BME280;23794;48.234;8.344;2023-07-30T01:20:42;94060.44;;;15.32;86.81
37972;BME280;23794;48.234;8.344;2023-07-30T01:23:09;94050.28;;;15.29;87.04
37972;BME280;23794;48.234;8.344;2023-07-30T01:25:37;94061.81;;;15.24;87.68
37972;BME280;23794;48.234;8.344;2023-07-30T01:28:05;94058.66;;;15.26;86.72
37972;BME280;23794;48.234;8.344;2023-07-30T01:30:38;94057.78;;;15.29;86.68
37972;BME280;23794;48.234;8.344;2023-07-30T01:33:07;94054.34;;;15.25;86.58
37972;BME280;23794;48.234;8.344;2023-07-30T01:35:37;94067.13;;;15.19;86.43
37972;BME280;23794;48.234;8.344;2023-07-30T01:38:04;94070.84;;;15.12;87.05
37972;BME280;23794;48.234;8.344;2023-07-30T01:40:32;94069.03;;;15.05;87.95
37972;BME280;23794;48.234;8.344;2023-07-30T01:42:59;94075.59;;;15.11;87.91
37972;BME280;23794;48.234;8.344;2023-07-30T01:45:26;94072.66;;;15.19;86.86
37972;BME280;23794;48.234;8.344;2023-07-30T01:47:53;94065.91;;;15.20;87.14
37972;BME280;23794;48.234;8.344;2023-07-30T01:50:19;94074.59;;;15.18;87.16
37972;BME280;23794;48.234;8.344;2023-07-30T01:52:46;94058.41;;;15.20;87.15
37972;BME280;23794;48.234;8.344;2023-07-30T01:55:13;94060.72;;;15.22;86.33
37972;BME280;23794;48.234;8.344;2023-07-30T01:57:39;94062.47;;;15.15;86.75
37972;BME280;23794;48.234;8.344;2023-07-30T02:00:06;94065.84;;;15.07;86.71
37972;BME280;23794;48.234;8.344;2023-07-30T02:02:33;94069.91;;;15.02;86.88
37972;BME280;23794;48.234;8.344;2023-07-30T02:05:02;94061.81;;;14.95;87.10
37972;BME280;23794;48.234;8.344;2023-07-30T02:07:29;94066.78;;;15.00;86.38
37972;BME280;23794;48.234;8.344;2023-07-30T02:09:56;94066.03;;;14.99;86.65
37972;BME280;23794;48.234;8.344;2023-07-30T02:12:22;94068.34;;;15.01;86.31
37972;BME280;23794;48.234;8.344;2023-07-30T02:14:49;94075.88;;;15.00;86.45
37972;BME280;23794;48.234;8.344;2023-07-30T02:17:16;94080.25;;;14.98;86.93
37972;BME280;23794;48.234;8.344;2023-07-30T02:19:42;94080.59;;;15.00;86.39
37972;BME280;23794;48.234;8.344;2023-07-30T02:22:09;94077.91;;;14.96;86.95
37972;BME280;23794;48.234;8.344;2023-07-30T02:24:36;94068.44;;;14.97;87.02
37972;BME280;23794;48.234;8.344;2023-07-30T02:27:03;94079.03;;;14.99;87.23
37972;BME280;23794;48.234;8.344;2023-07-30T02:29:29;94078.94;;;15.03;86.90
37972;BME280;23794;48.234;8.344;2023-07-30T02:31:57;94066.72;;;15.04;86.67
37972;BME280;23794;48.234;8.344;2023-07-30T02:34:26;94056.31;;;14.95;86.88
37972;BME280;23794;48.234;8.344;2023-07-30T02:36:53;94060.53;;;14.99;86.63
37972;BME280;23794;48.234;8.344;2023-07-30T02:39:19;94064.38;;;15.02;87.02
37972;BME280;23794;48.234;8.344;2023-07-30T02:41:46;94059.97;;;15.05;86.35
37972;BME280;23794;48.234;8.344;2023-07-30T02:44:13;94063.28;;;14.99;86.67
37972;BME280;23794;48.234;8.344;2023-07-30T02:46:40;94070.44;;;14.97;86.20
37972;BME280;23794;48.234;8.344;2023-07-30T02:49:07;94072.84;;;14.95;86.47
37972;BME280;23794;48.234;8.344;2023-07-30T02:51:35;94070.44;;;14.97;85.87
37972;BME280;23794;48.234;8.344;2023-07-30T02:54:06;94066.13;;;14.96;85.66
37972;BME280;23794;48.234;8.344;2023-07-30T02:56:33;94065.09;;;14.90;86.61
37972;BME280;23794;48.234;8.344;2023-07-30T02:59:00;94049.59;;;14.96;85.91
37972;BME280;23794;48.234;8.344;2023-07-30T03:01:27;94052.44;;;14.92;86.27
37972;BME280;23794;48.234;8.344;2023-07-30T03:03:54;94048.13;;;14.91;86.74
37972;BME280;23794;48.234;8.344;2023-07-30T03:06:21;94041.50;;;14.89;86.67
37972;BME280;23794;48.234;8.344;2023-07-30T03:08:47;94051.06;;;14.84;86.99
37972;BME280;23794;48.234;8.344;2023-07-30T03:11:14;94055.44;;;14.81;87.74
37972;BME280;23794;48.234;8.344;2023-07-30T03:13:40;94053.38;;;14.86;86.79
37972;BME280;23794;48.234;8.344;2023-07-30T03:16:07;94059.38;;;14.80;87.22
37972;BME280;23794;48.234;8.344;2023-07-30T03:18:34;94057.75;;;14.66;87.88
37972;BME280;23794;48.234;8.344;2023-07-30T03:21:00;94060.94;;;14.65;87.81
37972;BME280;23794;48.234;8.344;2023-07-30T03:23:27;94070.06;;;14.62;87.43
37972;BME280;23794;48.234;8.344;2023-07-30T03:25:54;94071.63;;;14.63;87.07
37972;BME280;23794;48.234;8.344;2023-07-30T03:28:21;94064.56;;;14.62;86.65
37972;BME280;23794;48.234;8.344;2023-07-30T03:30:47;94080.41;;;14.58;86.96
37972;BME280;23794;48.234;8.344;2023-07-30T03:33:14;94082.47;;;14.53;86.64
37972;BME280;23794;48.234;8.344;2023-07-30T03:35:41;94086.78;;;14.55;85.83
37972;BME280;23794;48.234;8.344;2023-07-30T03:38:07;94076.78;;;14.44;86.10
37972;BME280;23794;48.234;8.344;2023-07-30T03:40:34;94082.03;;;14.39;86.98
37972;BME280;23794;48.234;8.344;2023-07-30T03:43:01;94093.69;;;14.26;87.75
37972;BME280;23794;48.234;8.344;2023-07-30T03:45:28;94084.41;;;14.20;87.72
37972;BME280;23794;48.234;8.344;2023-07-30T03:47:55;94085.03;;;14.28;87.07
37972;BME280;23794;48.234;8.344;2023-07-30T03:50:21;94089.66;;;14.31;86.68
37972;BME280;23794;48.234;8.344;2023-07-30T03:52:48;94078.25;;;14.32;86.36
37972;BME280;23794;48.234;8.344;2023-07-30T03:55:15;94078.66;;;14.31;86.65
37972;BME280;23794;48.234;8.344;2023-07-30T03:57:41;94074.56;;;14.19;87.15
37972;BME280;23794;48.234;8.344;2023-07-30T04:00:08;94086.03;;;14.17;87.57
37972;BME280;23794;48.234;8.344;2023-07-30T04:02:41;94073.38;;;14.20;86.75
37972;BME280;23794;48.234;8.344;2023-07-30T04:05:07;94087.59;;;14.18;86.73
37972;BME280;23794;48.234;8.344;2023-07-30T04:07:34;94084.84;;;14.18;87.17
37972;BME280;23794;48.234;8.344;2023-07-30T04:10:02;94098.81;;;14.28;87.21
37972;BME280;23794;48.234;8.344;2023-07-30T04:12:29;94098.72;;;14.31;87.51
37972;BME280;23794;48.234;8.344;2023-07-30T04:14:56;94097.28;;;14.43;86.40
37972;BME280;23794;48.234;8.344;2023-07-30T04:17:22;94104.16;;;14.35;87.40
37972;BME280;23794;48.234;8.344;2023-07-30T04:19:49;94098.91;;;14.41;86.18
37972;BME280;23794;48.234;8.344;2023-07-30T04:22:16;94108.53;;;14.32;87.15
37972;BME280;23794;48.234;8.344;2023-07-30T04:24:43;94103.72;;;14.36;87.05
37972;BME280;23794;48.234;8.344;2023-07-30T04:27:09;94102.94;;;14.36;86.07
37972;BME280;23794;48.234;8.344;2023-07-30T04:29:36;94113.78;;;14.27;87.58
37972;BME280;23794;48.234;8.344;2023-07-30T04:32:03;94108.25;;;14.27;87.68
37972;BME280;23794;48.234;8.344;2023-07-30T04:34:30;94117.13;;;14.34;87.13
37972;BME280;23794;48.234;8.344;2023-07-30T04:36:56;94115.84;;;14.39;86.53
37972;BME280;23794;48.234;8.344;2023-07-30T04:39:23;94110.63;;;14.45;86.58
37972;BME280;23794;48.234;8.344;2023-07-30T04:41:50;94109.25;;;14.53;86.23
37972;BME280;23794;48.234;8.344;2023-07-30T04:44:16;94101.94;;;14.63;87.02
37972;BME280;23794;48.234;8.344;2023-07-30T04:46:43;94109.50;;;14.75;86.87
37972;BME280;23794;48.234;8.344;2023-07-30T04:49:10;94108.16;;;14.83;87.24
37972;BME280;23794;48.234;8.344;2023-07-30T04:51:37;94107.31;;;14.87;86.23
37972;BME280;23794;48.234;8.344;2023-07-30T04:54:05;94112.22;;;14.95;86.47
37972;BME280;23794;48.234;8.344;2023-07-30T04:56:32;94112.31;;;15.08;85.95
37972;BME280;23794;48.234;8.344;2023-07-30T04:58:59;94103.84;;;15.15;85.20
37972;BME280;23794;48.234;8.344;2023-07-30T05:01:26;94109.00;;;15.13;84.89
37972;BME280;23794;48.234;8.344;2023-07-30T05:03:53;94103.50;;;15.13;85.36
37972;BME280;23794;48.234;8.344;2023-07-30T05:06:20;94109.09;;;15.10;85.33
37972;BME280;23794;48.234;8.344;2023-07-30T05:08:46;94112.03;;;15.03;85.08
37972;BME280;23794;48.234;8.344;2023-07-30T05:11:13;94119.91;;;15.04;84.70
37972;BME280;23794;48.234;8.344;2023-07-30T05:13:39;94122.75;;;15.00;85.12
37972;BME280;23794;48.234;8.344;2023-07-30T05:16:06;94111.19;;;15.06;84.54
37972;BME280;23794;48.234;8.344;2023-07-30T05:18:33;94112.03;;;15.03;84.76
37972;BME280;23794;48.234;8.344;2023-07-30T05:20:59;94111.94;;;15.06;85.45
37972;BME280;23794;48.234;8.344;2023-07-30T05:23:26;94108.91;;;15.17;85.80
37972;BME280;23794;48.234;8.344;2023-07-30T05:25:52;94114.50;;;15.30;85.97
37972;BME280;23794;48.234;8.344;2023-07-30T05:28:19;94120.53;;;15.41;86.34
37972;BME280;23794;48.234;8.344;2023-07-30T05:30:46;94122.47;;;15.57;85.83
37972;BME280;23794;48.234;8.344;2023-07-30T05:33:13;94119.66;;;15.74;85.90
37972;BME280;23794;48.234;8.344;2023-07-30T05:35:39;94113.50;;;15.83;85.99
37972;BME280;23794;48.234;8.344;2023-07-30T05:38:06;94118.66;;;15.97;86.39
37972;BME280;23794;48.234;8.344;2023-07-30T05:40:34;94119.69;;;16.16;85.45
37972;BME280;23794;48.234;8.344;2023-07-30T05:43:05;94120.69;;;16.35;84.86
37972;BME280;23794;48.234;8.344;2023-07-30T05:45:31;94120.72;;;16.48;84.33
37972;BME280;23794;48.234;8.344;2023-07-30T05:48:00;94118.94;;;16.54;83.76
37972;BME280;23794;48.234;8.344;2023-07-30T05:50:26;94120.16;;;16.53;84.28
37972;BME280;23794;48.234;8.344;2023-07-30T05:52:53;94121.38;;;16.65;84.17
37972;BME280;23794;48.234;8.344;2023-07-30T05:55:20;94127.78;;;16.75;83.55
37972;BME280;23794;48.234;8.344;2023-07-30T05:57:46;94134.66;;;16.83;83.39
37972;BME280;23794;48.234;8.344;2023-07-30T06:00:13;94137.06;;;16.94;82.70
37972;BME280;23794;48.234;8.344;2023-07-30T06:02:40;94130.91;;;17.03;82.73
37972;BME280;23794;48.234;8.344;2023-07-30T06:05:07;94137.84;;;17.20;83.12
37972;BME280;23794;48.234;8.344;2023-07-30T06:07:33;94136.59;;;17.34;82.79
37972;BME280;23794;48.234;8.344;2023-07-30T06:10:00;94145.00;;;17.44;82.14
37972;BME280;23794;48.234;8.344;2023-07-30T06:12:27;94140.22;;;17.44;81.90
37972;BME280;23794;48.234;8.344;2023-07-30T06:14:53;94139.34;;;17.47;80.92
37972;BME280;23794;48.234;8.344;2023-07-30T06:17:20;94135.25;;;17.39;79.30
37972;BME280;23794;48.234;8.344;2023-07-30T06:19:47;94144.66;;;17.42;78.19
37972;BME280;23794;48.234;8.344;2023-07-30T06:22:13;94144.53;;;17.45;79.24
37972;BME280;23794;48.234;8.344;2023-07-30T06:24:40;94153.28;;;17.44;79.85
37972;BME280;23794;48.234;8.344;2023-07-30T06:27:06;94144.13;;;17.34;79.85
37972;BME280;23794;48.234;8.344;2023-07-30T06:29:36;94154.53;;;17.30;79.68
37972;BME280;23794;48.234;8.344;2023-07-30T06:32:03;94157.31;;;17.30;79.55
37972;BME280;23794;48.234;8.344;2023-07-30T06:34:30;94151.88;;;17.26;79.84
37972;BME280;23794;48.234;8.344;2023-07-30T06:36:56;94159.66;;;17.18;79.15
37972;BME280;23794;48.234;8.344;2023-07-30T06:39:23;94166.63;;;17.23;80.86
37972;BME280;23794;48.234;8.344;2023-07-30T06:41:50;94170.50;;;17.13;78.97
37972;BME280;23794;48.234;8.344;2023-07-30T06:44:17;94163.06;;;17.23;78.70
37972;BME280;23794;48.234;8.344;2023-07-30T06:46:44;94173.03;;;17.33;78.40
37972;BME280;23794;48.234;8.344;2023-07-30T06:49:11;94177.53;;;17.40;78.62
37972;BME280;23794;48.234;8.344;2023-07-30T06:51:37;94180.19;;;17.43;78.24
37972;BME280;23794;48.234;8.344;2023-07-30T06:54:04;94177.97;;;17.51;77.87
37972;BME280;23794;48.234;8.344;2023-07-30T06:56:31;94179.41;;;17.56;78.28
37972;BME280;23794;48.234;8.344;2023-07-30T06:58:58;94185.78;;;17.65;77.30
37972;BME280;23794;48.234;8.344;2023-07-30T07:01:25;94178.88;;;17.83;77.58
37972;BME280;23794;48.234;8.344;2023-07-30T07:03:51;94181.16;;;17.97;76.28
37972;BME280;23794;48.234;8.344;2023-07-30T07:06:18;94176.84;;;18.19;76.03
37972;BME280;23794;48.234;8.344;2023-07-30T07:08:52;94177.59;;;18.41;74.86
37972;BME280;23794;48.234;8.344;2023-07-30T07:11:19;94180.44;;;18.51;74.93
37972;BME280;23794;48.234;8.344;2023-07-30T07:13:45;94169.41;;;18.38;72.24
37972;BME280;23794;48.234;8.344;2023-07-30T07:16:12;94175.34;;;18.49;73.12
37972;BME280;23794;48.234;8.344;2023-07-30T07:18:39;94178.88;;;18.50;72.07
37972;BME280;23794;48.234;8.344;2023-07-30T07:21:05;94173.47;;;18.46;72.98
37972;BME280;23794;48.234;8.344;2023-07-30T07:23:33;94172.84;;;18.42;72.27
37972;BME280;23794;48.234;8.344;2023-07-30T07:26:00;94170.13;;;18.51;71.40
37972;BME280;23794;48.234;8.344;2023-07-30T07:28:26;94170.56;;;18.50;71.34
37972;BME280;23794;48.234;8.344;2023-07-30T07:30:54;94182.03;;;18.61;70.26
37972;BME280;23794;48.234;8.344;2023-07-30T07:33:21;94185.78;;;18.45;70.69
37972;BME280;23794;48.234;8.344;2023-07-30T07:35:48;94174.19;;;18.37;69.47
37972;BME280;23794;48.234;8.344;2023-07-30T07:38:15;94182.03;;;18.61;70.81
37972;BME280;23794;48.234;8.344;2023-07-30T07:40:41;94169.91;;;18.99;69.86
37972;BME280;23794;48.234;8.344;2023-07-30T07:43:08;94184.81;;;18.92;69.30
37972;BME280;23794;48.234;8.344;2023-07-30T07:45:35;94190.41;;;18.70;69.41
37972;BME280;23794;48.234;8.344;2023-07-30T07:48:02;94186.63;;;18.55;70.94
37972;BME280;23794;48.234;8.344;2023-07-30T07:50:29;94177.34;;;18.80;70.19
37972;BME280;23794;48.234;8.344;2023-07-30T07:52:56;94177.63;;;18.73;70.39
37972;BME280;23794;48.234;8.344;2023-07-30T07:55:23;94170.34;;;18.88;69.94
37972;BME280;23794;48.234;8.344;2023-07-30T07:57:49;94168.69;;;19.09;71.28
37972;BME280;23794;48.234;8.344;2023-07-30T08:00:17;94173.25;;;19.35;70.11
37972;BME280;23794;48.234;8.344;2023-07-30T08:02:44;94176.78;;;19.35;69.10
37972;BME280;23794;48.234;8.344;2023-07-30T08:05:14;94183.41;;;19.29;70.60
37972;BME280;23794;48.234;8.344;2023-07-30T08:07:40;94179.06;;;19.18;71.20
37972;BME280;23794;48.234;8.344;2023-07-30T08:10:07;94178.38;;;18.95;71.21
37972;BME280;23794;48.234;8.344;2023-07-30T08:12:34;94168.91;;;18.84;70.78
37972;BME280;23794;48.234;8.344;2023-07-30T08:15:01;94196.03;;;18.57;71.62
37972;BME280;23794;48.234;8.344;2023-07-30T08:17:28;94187.91;;;18.63;72.00
37972;BME280;23794;48.234;8.344;2023-07-30T08:19:55;94189.22;;;18.80;73.51
37972;BME280;23794;48.234;8.344;2023-07-30T08:22:22;94200.31;;;19.03;71.83
37972;BME280;23794;48.234;8.344;2023-07-30T08:24:49;94192.56;;;18.98;70.94
37972;BME280;23794;48.234;8.344;2023-07-30T08:30:15;94201.94;;;18.37;73.06
37972;BME280;23794;48.234;8.344;2023-07-30T08:32:41;94198.25;;;18.18;73.15
37972;BME280;23794;48.234;8.344;2023-07-30T08:35:10;94206.44;;;17.99;72.71
37972;BME280;23794;48.234;8.344;2023-07-30T08:37:36;94203.47;;;17.94;73.57
37972;BME280;23794;48.234;8.344;2023-07-30T08:40:04;94193.69;;;18.02;73.25
37972;BME280;23794;48.234;8.344;2023-07-30T08:42:30;94198.13;;;17.99;73.03
37972;BME280;23794;48.234;8.344;2023-07-30T08:44:57;94203.53;;;18.03;73.88
37972;BME280;23794;48.234;8.344;2023-07-30T08:47:24;94197.47;;;17.95;72.96
37972;BME280;23794;48.234;8.344;2023-07-30T08:49:50;94199.47;;;17.95;74.11
37972;BME280;23794;48.234;8.344;2023-07-30T08:52:19;94192.34;;;18.07;74.13
37972;BME280;23794;48.234;8.344;2023-07-30T08:54:48;94202.25;;;18.17;74.18
37972;BME280;23794;48.234;8.344;2023-07-30T08:57:18;94195.75;;;18.33;73.25
37972;BME280;23794;48.234;8.344;2023-07-30T08:59:50;94208.97;;;18.29;72.47
37972;BME280;23794;48.234;8.344;2023-07-30T09:02:52;94209.38;;;18.05;72.86
37972;BME280;23794;48.234;8.344;2023-07-30T09:05:20;94218.88;;;17.82;75.38
37972;BME280;23794;48.234;8.344;2023-07-30T09:07:47;94211.72;;;17.59;74.46
37972;BME280;23794;48.234;8.344;2023-07-30T09:10:15;94228.84;;;17.18;76.01
37972;BME280;23794;48.234;8.344;2023-07-30T09:12:42;94235.94;;;17.19;76.11
37972;BME280;23794;48.234;8.344;2023-07-30T09:15:09;94244.00;;;17.14;76.73
37972;BME280;23794;48.234;8.344;2023-07-30T09:17:36;94252.88;;;16.96;77.38
37972;BME280;23794;48.234;8.344;2023-07-30T09:20:03;94252.81;;;16.83;77.82
37972;BME280;23794;48.234;8.344;2023-07-30T09:22:32;94257.09;;;16.71;77.81
37972;BME280;23794;48.234;8.344;2023-07-30T09:25:01;94249.78;;;16.51;76.76
37972;BME280;23794;48.234;8.344;2023-07-30T09:27:31;94268.00;;;16.49;77.10
37972;BME280;23794;48.234;8.344;2023-07-30T09:29:59;94269.13;;;16.51;77.64
37972;BME280;23794;48.234;8.344;2023-07-30T09:32:28;94276.75;;;16.47;78.90
37972;BME280;23794;48.234;8.344;2023-07-30T09:34:55;94281.91;;;16.32;77.92
37972;BME280;23794;48.234;8.344;2023-07-30T09:37:21;94276.38;;;16.32;78.96
37972;BME280;23794;48.234;8.344;2023-07-30T09:39:48;94274.22;;;16.53;79.14
37972;BME280;23794;48.234;8.344;2023-07-30T09:42:15;94272.16;;;16.70;79.06
37972;BME280;23794;48.234;8.344;2023-07-30T09:44:41;94273.69;;;17.00;77.93
37972;BME280;23794;48.234;8.344;2023-07-30T09:47:09;94271.91;;;17.19;77.32
37972;BME280;23794;48.234;8.344;2023-07-30T09:49:37;94277.22;;;17.27;77.40
37972;BME280;23794;48.234;8.344;2023-07-30T09:52:05;94281.63;;;17.24;77.81
37972;BME280;23794;48.234;8.344;2023-07-30T09:54:32;94282.75;;;17.27;78.45
37972;BME280;23794;48.234;8.344;2023-07-30T09:56:59;94283.66;;;17.36;78.21
37972;BME280;23794;48.234;8.344;2023-07-30T09:59:26;94306.66;;;17.20;77.25
37972;BME280;23794;48.234;8.344;2023-07-30T10:01:53;94293.94;;;17.10;78.80
37972;BME280;23794;48.234;8.344;2023-07-30T10:04:22;94300.47;;;17.42;78.42
37972;BME280;23794;48.234;8.344;2023-07-30T10:06:56;94297.31;;;18.05;78.33
37972;BME280;23794;48.234;8.344;2023-07-30T10:09:25;94279.44;;;18.41;76.24
37972;BME280;23794;48.234;8.344;2023-07-30T10:11:55;94294.63;;;18.14;74.43
37972;BME280;23794;48.234;8.344;2023-07-30T10:14:22;94283.47;;;17.92;75.54
37972;BME280;23794;48.234;8.344;2023-07-30T10:16:52;94282.63;;;17.56;76.24
37972;BME280;23794;48.234;8.344;2023-07-30T10:19:25;94295.59;;;17.33;77.97
37972;BME280;23794;48.234;8.344;2023-07-30T10:25:03;94298.69;;;17.10;77.73
37972;BME280;23794;48.234;8.344;2023-07-30T10:27:37;94296.47;;;17.17;78.01
37972;BME280;23794;48.234;8.344;2023-07-30T10:30:12;94297.47;;;17.24;77.03
37972;BME280;23794;48.234;8.344;2023-07-30T10:32:41;94295.28;;;17.31;78.04
37972;BME280;23794;48.234;8.344;2023-07-30T10:35:08;94297.16;;;17.47;77.65
37972;BME280;23794;48.234;8.344;2023-07-30T10:37:35;94294.38;;;17.60;75.24
37972;BME280;23794;48.234;8.344;2023-07-30T10:40:15;94298.63;;;17.87;75.19
37972;BME280;23794;48.234;8.344;2023-07-30T10:42:43;94312.59;;;18.09;75.60
37972;BME280;23794;48.234;8.344;2023-07-30T10:45:09;94312.09;;;18.24;75.12
37972;BME280;23794;48.234;8.344;2023-07-30T10:47:36;94315.66;;;18.24;74.67
37972;BME280;23794;48.234;8.344;2023-07-30T10:50:03;94300.28;;;18.10;73.91
37972;BME280;23794;48.234;8.344;2023-07-30T10:52:30;94315.41;;;17.96;75.37
37972;BME280;23794;48.234;8.344;2023-07-30T10:55:00;94312.75;;;17.93;74.74
37972;BME280;23794;48.234;8.344;2023-07-30T10:57:30;94317.50;;;17.79;74.69
37972;BME280;23794;48.234;8.344;2023-07-30T10:59:59;94313.19;;;17.78;73.93
37972;BME280;23794;48.234;8.344;2023-07-30T11:02:28;94319.00;;;18.41;71.99
37972;BME280;23794;48.234;8.344;2023-07-30T11:04:54;94323.09;;;18.50;71.81
37972;BME280;23794;48.234;8.344;2023-07-30T11:07:21;94317.94;;;18.61;73.07
37972;BME280;23794;48.234;8.344;2023-07-30T11:09:58;94311.44;;;19.31;69.03
37972;BME280;23794;48.234;8.344;2023-07-30T11:12:26;94310.94;;;19.95;68.82
37972;BME280;23794;48.234;8.344;2023-07-30T11:15:00;94309.88;;;20.20;67.26
37972;BME280;23794;48.234;8.344;2023-07-30T11:17:27;94303.41;;;20.51;66.14
37972;BME280;23794;48.234;8.344;2023-07-30T11:19:54;94304.97;;;20.80;67.19
37972;BME280;23794;48.234;8.344;2023-07-30T11:22:32;94299.47;;;21.23;64.96
37972;BME280;23794;48.234;8.344;2023-07-30T11:24:59;94305.03;;;21.23;63.13
37972;BME280;23794;48.234;8.344;2023-07-30T11:27:27;94299.59;;;21.29;65.07
37972;BME280;23794;48.234;8.344;2023-07-30T11:29:57;94297.72;;;21.44;64.59
37972;BME280;23794;48.234;8.344;2023-07-30T11:32:24;94292.16;;;22.02;61.12
37972;BME280;23794;48.234;8.344;2023-07-30T11:34:54;94294.69;;;22.24;62.40
37972;BME280;23794;48.234;8.344;2023-07-30T11:37:22;94287.41;;;22.42;58.72
37972;BME280;23794;48.234;8.344;2023-07-30T11:39:49;94286.59;;;22.51;60.65
37972;BME280;23794;48.234;8.344;2023-07-30T11:42:16;94301.56;;;22.93;61.07
37972;BME280;23794;48.234;8.344;2023-07-30T11:44:43;94303.84;;;22.64;56.35
37972;BME280;23794;48.234;8.344;2023-07-30T11:47:09;94310.41;;;22.37;59.45
37972;BME280;23794;48.234;8.344;2023-07-30T11:49:36;94302.41;;;22.84;57.96
37972;BME280;23794;48.234;8.344;2023-07-30T11:52:07;94304.94;;;22.82;53.68
37972;BME280;23794;48.234;8.344;2023-07-30T11:54:35;94295.47;;;22.16;56.67
37972;BME280;23794;48.234;8.344;2023-07-30T11:57:02;94303.72;;;21.86;58.94
37972;BME280;23794;48.234;8.344;2023-07-30T11:59:31;94307.94;;;21.38;59.85
37972;BME280;23794;48.234;8.344;2023-07-30T12:01:57;94311.59;;;20.92;60.36
37972;BME280;23794;48.234;8.344;2023-07-30T12:04:24;94319.78;;;20.96;66.73
37972;BME280;23794;48.234;8.344;2023-07-30T12:06:52;94326.00;;;20.81;63.18
37972;BME280;23794;48.234;8.344;2023-07-30T12:09:22;94316.41;;;21.01;63.60
37972;BME280;23794;48.234;8.344;2023-07-30T12:12:00;94317.25;;;21.26;60.44
37972;BME280;23794;48.234;8.344;2023-07-30T12:14:29;94306.78;;;21.02;63.17
37972;BME280;23794;48.234;8.344;2023-07-30T12:16:59;94317.16;;;20.83;61.15
37972;BME280;23794;48.234;8.344;2023-07-30T12:19:27;94313.91;;;20.19;65.54
37972;BME280;23794;48.234;8.344;2023-07-30T12:21:54;94321.88;;;19.80;66.09
37972;BME280;23794;48.234;8.344;2023-07-30T12:24:20;94335.75;;;19.80;64.65
37972;BME280;23794;48.234;8.344;2023-07-30T12:26:49;94326.84;;;19.95;65.12
37972;BME280;23794;48.234;8.344;2023-07-30T12:29:17;94318.84;;;20.15;64.62
37972;BME280;23794;48.234;8.344;2023-07-30T12:31:44;94305.69;;;19.97;63.88
37972;BME280;23794;48.234;8.344;2023-07-30T12:34:12;94309.13;;;20.38;65.28
37972;BME280;23794;48.234;8.344;2023-07-30T12:36:39;94300.63;;;20.14;60.32
37972;BME280;23794;48.234;8.344;2023-07-30T12:39:06;94303.25;;;20.18;62.17
37972;BME280;23794;48.234;8.344;2023-07-30T12:41:33;94309.56;;;20.09;63.68
37972;BME280;23794;48.234;8.344;2023-07-30T12:44:00;94315.88;;;19.91;66.15
37972;BME280;23794;48.234;8.344;2023-07-30T12:46:27;94316.53;;;19.32;69.11
37972;BME280;23794;48.234;8.344;2023-07-30T12:48:56;94331.09;;;19.14;70.48
37972;BME280;23794;48.234;8.344;2023-07-30T12:51:23;94324.59;;;19.08;67.95
37972;BME280;23794;48.234;8.344;2023-07-30T12:53:50;94321.97;;;18.82;70.26
37972;BME280;23794;48.234;8.344;2023-07-30T12:56:16;94329.75;;;18.52;72.51
37972;BME280;23794;48.234;8.344;2023-07-30T12:58:43;94339.22;;;18.42;72.34
37972;BME280;23794;48.234;8.344;2023-07-30T13:01:09;94338.00;;;18.43;71.25
37972;BME280;23794;48.234;8.344;2023-07-30T13:03:36;94343.53;;;18.43;71.79
37972;BME280;23794;48.234;8.344;2023-07-30T13:06:03;94343.69;;;18.84;68.34
37972;BME280;23794;48.234;8.344;2023-07-30T13:08:30;94344.34;;;19.10;66.25